Time;durP1;ratioP1;P1;durP2;ratioP2;P2;SDS_P1;SDS_P2;PMS_P1;PMS_P2;Temp;Humidity;BMP_temperature;BMP_pressure;BME280_temperature;BME280_humidity;BME280_pressure;Samples;Min_cycle;Max_cycle;Signal;HPM_P1;HPM_P2
2021/08/06 00:01:56;;;;;;;6.53;4.90;;;19.70;99.90;;;;;;5045127;28;20481;-75
2021/08/06 00:04:22;;;;;;;6.07;4.78;;;19.80;99.90;;;;;;5047501;28;20481;-76
2021/08/06 00:06:47;;;;;;;7.30;5.38;;;19.70;99.90;;;;;;5047693;28;20029;-76
2021/08/06 00:09:13;;;;;;;8.02;4.75;;;19.70;99.90;;;;;;5051225;28;20029;-76
2021/08/06 00:11:39;;;;;;;8.60;5.18;;;19.80;99.90;;;;;;5067583;28;20148;-76
2021/08/06 00:14:05;;;;;;;5.53;4.88;;;19.70;99.90;;;;;;5050461;28;20401;-74
2021/08/06 00:16:31;;;;;;;5.68;5.05;;;19.70;99.90;;;;;;5051214;28;20017;-75
2021/08/06 00:18:57;;;;;;;7.50;5.20;;;19.80;99.90;;;;;;5051494;28;20174;-75
2021/08/06 00:21:22;;;;;;;9.05;4.88;;;19.80;99.90;;;;;;5051157;28;20013;-75
2021/08/06 00:23:48;;;;;;;5.40;4.85;;;19.80;99.90;;;;;;5052659;28;20052;-76
2021/08/06 00:26:14;;;;;;;6.70;4.97;;;19.80;99.90;;;;;;5050769;28;20143;-75
2021/08/06 00:28:40;;;;;;;7.60;5.00;;;19.80;99.90;;;;;;5050771;28;20021;-75
2021/08/06 00:31:06;;;;;;;6.97;4.82;;;19.80;99.90;;;;;;5046910;28;20057;-75
2021/08/06 00:33:31;;;;;;;7.20;4.78;;;19.70;99.90;;;;;;5048030;28;20056;-75
2021/08/06 00:35:57;;;;;;;5.57;4.53;;;19.70;99.90;;;;;;5050858;28;20025;-75
2021/08/06 00:38:23;;;;;;;6.90;5.38;;;19.70;99.90;;;;;;5051206;28;20373;-75
2021/08/06 00:40:48;;;;;;;7.13;4.55;;;19.70;99.90;;;;;;5049400;28;20017;-75
2021/08/06 00:43:14;;;;;;;5.30;4.35;;;19.70;99.90;;;;;;5049259;28;20025;-74
2021/08/06 00:45:41;;;;;;;8.05;4.15;;;19.70;99.90;;;;;;5052136;28;20350;-74
2021/08/06 00:48:06;;;;;;;4.57;3.92;;;19.70;99.90;;;;;;5049946;28;20097;-75
2021/08/06 00:50:32;;;;;;;4.97;4.10;;;19.80;99.90;;;;;;5051398;28;20025;-75
2021/08/06 00:52:58;;;;;;;8.23;3.60;;;19.80;99.90;;;;;;5051135;28;20478;-75
2021/08/06 00:55:24;;;;;;;4.63;3.90;;;19.80;99.90;;;;;;5051001;28;20028;-75
2021/08/06 00:57:49;;;;;;;10.23;3.28;;;19.70;99.90;;;;;;5053845;28;20020;-74
2021/08/06 01:00:15;;;;;;;3.78;2.83;;;19.70;99.90;;;;;;5051188;28;20017;-74
2021/08/06 01:03:03;;;;;;;2.88;2.58;;;19.70;99.90;;;;;;5051398;28;20072;-75
2021/08/06 01:05:39;;;;;;;2.90;2.65;;;19.70;99.90;;;;;;5065045;28;20032;-75
2021/08/06 01:08:11;;;;;;;3.60;2.83;;;19.80;99.90;;;;;;5050397;28;20051;-75
2021/08/06 01:10:49;;;;;;;2.95;2.10;;;19.80;99.90;;;;;;5049693;28;20021;-75
2021/08/06 01:13:23;;;;;;;5.88;2.50;;;19.90;99.90;;;;;;5048454;28;20556;-75
2021/08/06 01:15:51;;;;;;;4.88;1.90;;;19.90;99.90;;;;;;5050829;28;20051;-75
2021/08/06 01:18:19;;;;;;;2.92;2.20;;;19.90;99.90;;;;;;5050893;28;20020;-75
2021/08/06 01:20:55;;;;;;;1.95;1.83;;;19.90;99.90;;;;;;5051470;28;20086;-75
2021/08/06 01:23:30;;;;;;;4.72;2.00;;;20.00;99.90;;;;;;5051654;28;20024;-75
2021/08/06 01:26:08;;;;;;;2.33;1.73;;;20.00;99.90;;;;;;5049828;28;20083;-75
2021/08/06 01:28:37;;;;;;;1.60;1.50;;;20.00;99.90;;;;;;5051700;28;20040;-75
2021/08/06 01:31:04;;;;;;;2.22;1.85;;;20.00;99.90;;;;;;5050576;28;20351;-75
2021/08/06 01:33:30;;;;;;;4.05;1.60;;;20.00;99.90;;;;;;5066911;28;20025;-74
2021/08/06 01:35:56;;;;;;;1.92;1.70;;;20.00;99.90;;;;;;5051239;28;20028;-75
2021/08/06 01:38:21;;;;;;;3.50;2.03;;;20.00;99.90;;;;;;5066772;28;20440;-74
2021/08/06 01:41:25;;;;;;;2.25;1.70;;;20.00;99.90;;;;;;5051499;28;20028;-75
2021/08/06 01:47:13;;;;;;;3.03;1.88;;;20.00;99.90;;;;;;5052003;28;20129;-75
2021/08/06 01:49:47;;;;;;;3.92;2.25;;;20.00;99.90;;;;;;5049694;28;20106;-75
2021/08/06 01:52:17;;;;;;;3.88;1.55;;;19.90;99.90;;;;;;5050336;28;20056;-75
2021/08/06 01:54:46;;;;;;;5.68;2.38;;;19.90;99.90;;;;;;5050341;28;20025;-75
2021/08/06 01:57:13;;;;;;;2.40;2.20;;;19.80;99.90;;;;;;5049860;28;20527;-75
2021/08/06 01:59:39;;;;;;;3.87;2.50;;;19.80;99.90;;;;;;5051400;28;20033;-75
2021/08/06 02:02:05;;;;;;;4.65;2.50;;;19.70;99.90;;;;;;5050179;28;20026;-76
2021/08/06 02:04:32;;;;;;;5.32;2.58;;;19.60;99.90;;;;;;5051122;28;20025;-75
2021/08/06 02:06:57;;;;;;;4.95;2.45;;;19.50;99.90;;;;;;5049780;28;20041;-75
2021/08/06 02:09:23;;;;;;;4.20;2.40;;;19.50;99.90;;;;;;5052229;28;20385;-75
2021/08/06 02:11:51;;;;;;;2.65;2.05;;;19.40;99.90;;;;;;5050253;28;20370;-75
2021/08/06 02:14:19;;;;;;;3.88;2.58;;;19.40;99.90;;;;;;5048967;28;20519;-75
2021/08/06 02:16:46;;;;;;;2.80;2.55;;;19.40;99.90;;;;;;5050830;28;20029;-75
2021/08/06 02:19:17;;;;;;;5.63;2.45;;;19.40;99.90;;;;;;5051266;28;20029;-75
2021/08/06 02:21:45;;;;;;;2.40;2.20;;;19.40;99.90;;;;;;5051570;28;20060;-75
2021/08/06 02:24:13;;;;;;;2.58;2.22;;;19.40;99.90;;;;;;5051716;28;20028;-75
2021/08/06 02:26:42;;;;;;;3.58;2.92;;;19.40;99.90;;;;;;5053288;28;20021;-75
2021/08/06 02:29:14;;;;;;;15.85;4.43;;;19.40;99.90;;;;;;5054803;28;20036;-77
2021/08/06 02:31:42;;;;;;;2.95;2.10;;;19.40;99.90;;;;;;5053167;28;20131;-71
2021/08/06 02:34:08;;;;;;;3.00;2.10;;;19.50;99.90;;;;;;5053104;28;20492;-71
2021/08/06 02:36:34;;;;;;;1.97;1.87;;;19.50;99.90;;;;;;5055146;28;20107;-70
2021/08/06 02:39:00;;;;;;;3.78;2.30;;;19.40;99.90;;;;;;5053300;28;20065;-73
2021/08/06 02:41:30;;;;;;;2.70;2.10;;;19.40;99.90;;;;;;5053038;28;20048;-71
2021/08/06 02:43:55;;;;;;;2.28;2.00;;;19.40;99.90;;;;;;5053498;28;20048;-71
2021/08/06 02:46:21;;;;;;;3.65;2.30;;;19.40;99.90;;;;;;5056416;28;20025;-70
2021/08/06 02:48:47;;;;;;;4.13;1.95;;;19.40;99.90;;;;;;5052886;28;20032;-70
2021/08/06 02:51:13;;;;;;;3.47;1.90;;;19.40;99.90;;;;;;5052636;28;20028;-70
2021/08/06 02:53:38;;;;;;;3.03;1.75;;;19.40;99.90;;;;;;5053840;28;20017;-70
2021/08/06 02:56:05;;;;;;;2.75;2.28;;;19.30;99.90;;;;;;5052959;28;20477;-70
2021/08/06 02:58:31;;;;;;;2.65;1.75;;;19.30;99.90;;;;;;5052438;28;20032;-70
2021/08/06 03:00:56;;;;;;;3.42;1.92;;;19.40;99.90;;;;;;5053923;28;20033;-70
2021/08/06 03:03:22;;;;;;;5.57;1.95;;;19.40;99.90;;;;;;5054897;28;20029;-71
2021/08/06 03:05:47;;;;;;;3.03;2.20;;;19.30;99.90;;;;;;5051232;28;20029;-72
2021/08/06 03:08:13;;;;;;;2.35;1.90;;;19.20;99.90;;;;;;5050184;28;20462;-70
2021/08/06 03:10:39;;;;;;;2.42;2.22;;;19.00;99.90;;;;;;5052405;28;20070;-70
2021/08/06 03:13:06;;;;;;;2.30;2.08;;;18.90;99.90;;;;;;5053141;28;20516;-70
2021/08/06 03:15:31;;;;;;;1.98;1.80;;;18.80;99.90;;;;;;5052756;28;20036;-70
2021/08/06 03:17:58;;;;;;;2.35;1.80;;;18.70;99.90;;;;;;5052507;28;20409;-71
2021/08/06 03:20:25;;;;;;;2.15;1.95;;;18.60;99.90;;;;;;5053380;28;20543;-71
2021/08/06 03:22:52;;;;;;;3.35;1.80;;;18.60;99.90;;;;;;5053426;28;20036;-71
2021/08/06 03:25:18;;;;;;;1.70;1.58;;;18.50;99.90;;;;;;5051676;28;20028;-70
2021/08/06 03:27:44;;;;;;;2.22;2.03;;;18.50;99.90;;;;;;5052484;28;20017;-70
2021/08/06 03:30:12;;;;;;;2.65;1.70;;;18.60;99.90;;;;;;5053237;28;20040;-71
2021/08/06 03:32:39;;;;;;;5.60;1.67;;;18.50;99.90;;;;;;5068866;28;20025;-71
2021/08/06 03:35:06;;;;;;;2.90;1.75;;;18.60;99.90;;;;;;5050072;28;20078;-70
2021/08/06 03:37:32;;;;;;;3.58;1.48;;;18.60;99.90;;;;;;5052769;28;20021;-70
2021/08/06 03:39:58;;;;;;;3.00;1.80;;;18.60;99.90;;;;;;5052629;28;20021;-70
2021/08/06 03:42:23;;;;;;;1.98;1.52;;;18.60;99.90;;;;;;5051652;28;20074;-70
2021/08/06 03:44:49;;;;;;;4.38;1.73;;;18.60;99.90;;;;;;5052362;28;20358;-70
2021/08/06 03:47:15;;;;;;;4.18;1.65;;;18.70;99.90;;;;;;5053133;28;20029;-70
2021/08/06 03:49:44;;;;;;;1.40;1.30;;;18.70;99.90;;;;;;5050936;28;20032;-70
2021/08/06 03:52:09;;;;;;;1.50;1.40;;;18.70;99.90;;;;;;5066853;28;20060;-71
2021/08/06 03:54:35;;;;;;;1.73;1.55;;;18.70;99.90;;;;;;5050187;28;20493;-70
2021/08/06 03:57:01;;;;;;;3.92;1.80;;;18.70;99.90;;;;;;5051253;28;20049;-73
2021/08/06 03:59:26;;;;;;;4.60;1.73;;;18.60;99.90;;;;;;5052733;28;20534;-70
2021/08/06 04:01:52;;;;;;;2.50;1.80;;;18.70;99.90;;;;;;5050576;28;20021;-70
2021/08/06 04:04:19;;;;;;;4.28;2.00;;;18.70;99.90;;;;;;5052784;28;20033;-70
2021/08/06 04:06:44;;;;;;;4.22;1.92;;;18.70;99.90;;;;;;5054966;28;20278;-70
2021/08/06 04:09:10;;;;;;;5.63;2.05;;;18.70;99.90;;;;;;5051330;28;20155;-71
2021/08/06 04:11:35;;;;;;;2.65;2.45;;;18.70;99.90;;;;;;5052560;28;20055;-74
2021/08/06 04:14:01;;;;;;;2.42;1.80;;;18.70;99.90;;;;;;5051319;28;20381;-70
2021/08/06 04:16:27;;;;;;;2.85;2.20;;;18.70;99.90;;;;;;5051641;28;20025;-70
2021/08/06 04:18:53;;;;;;;2.40;1.80;;;18.70;99.90;;;;;;5052817;28;20088;-70
2021/08/06 04:21:19;;;;;;;3.50;1.70;;;18.80;99.90;;;;;;5050354;28;20362;-70
2021/08/06 04:23:45;;;;;;;3.92;2.10;;;18.70;99.90;;;;;;5053870;28;20025;-72
2021/08/06 04:26:11;;;;;;;2.40;1.80;;;18.70;99.90;;;;;;5051744;28;20032;-75
2021/08/06 04:28:36;;;;;;;2.85;1.70;;;18.70;99.90;;;;;;5053026;28;20120;-71
2021/08/06 04:31:05;;;;;;;1.80;1.70;;;18.80;99.90;;;;;;5051790;28;20412;-70
2021/08/06 04:33:31;;;;;;;2.40;2.20;;;18.70;99.90;;;;;;5050335;28;20020;-70
2021/08/06 04:35:57;;;;;;;1.88;1.42;;;18.70;99.90;;;;;;5051427;28;20033;-70
2021/08/06 04:38:23;;;;;;;2.55;1.63;;;18.60;99.90;;;;;;5050447;28;20074;-70
2021/08/06 04:40:49;;;;;;;1.55;1.45;;;18.60;99.90;;;;;;5051109;28;20025;-70
2021/08/06 04:43:15;;;;;;;2.03;1.73;;;18.60;99.90;;;;;;5050765;28;20029;-70
2021/08/06 04:45:41;;;;;;;1.58;1.48;;;18.60;99.90;;;;;;5053687;28;20057;-70
2021/08/06 04:48:06;;;;;;;2.58;2.00;;;18.60;99.90;;;;;;5050869;28;20029;-70
2021/08/06 04:50:32;;;;;;;2.75;1.88;;;18.60;99.90;;;;;;5052105;28;20040;-70
2021/08/06 04:52:59;;;;;;;1.98;1.63;;;18.60;99.90;;;;;;5054579;28;20029;-76
2021/08/06 04:55:25;;;;;;;3.13;2.00;;;18.60;99.90;;;;;;5054607;28;20108;-76
2021/08/06 04:57:51;;;;;;;2.77;1.77;;;18.60;99.90;;;;;;5053452;28;20033;-77
2021/08/06 05:00:19;;;;;;;2.38;1.58;;;18.70;99.90;;;;;;5052823;28;20275;-76
2021/08/06 05:02:45;;;;;;;1.92;1.67;;;18.60;99.90;;;;;;5054218;28;20081;-76
2021/08/06 05:05:11;;;;;;;5.07;1.83;;;18.60;99.90;;;;;;5054262;28;20047;-76
2021/08/06 05:07:37;;;;;;;4.10;1.67;;;18.60;99.90;;;;;;5054834;28;20062;-75
2021/08/06 05:10:03;;;;;;;3.28;1.60;;;18.60;99.90;;;;;;5053097;28;20017;-76
2021/08/06 05:12:29;;;;;;;1.70;1.40;;;18.60;99.90;;;;;;5054393;28;20056;-76
2021/08/06 05:14:55;;;;;;;2.08;1.60;;;18.60;99.90;;;;;;5055598;28;20037;-77
2021/08/06 05:17:21;;;;;;;1.30;1.20;;;18.60;99.90;;;;;;5056904;28;20106;-76
2021/08/06 05:19:47;;;;;;;2.83;1.73;;;18.70;99.90;;;;;;5069122;28;20021;-77
2021/08/06 05:22:12;;;;;;;1.83;1.60;;;18.70;99.90;;;;;;5052571;28;20053;-77
2021/08/06 05:24:38;;;;;;;1.80;1.50;;;18.80;99.90;;;;;;5054467;28;20061;-76
2021/08/06 05:27:04;;;;;;;2.97;1.45;;;18.80;99.90;;;;;;5051106;28;20511;-76
2021/08/06 05:29:30;;;;;;;1.73;1.63;;;18.80;99.90;;;;;;5054909;28;20048;-76
2021/08/06 05:31:56;;;;;;;1.77;1.67;;;18.80;99.90;;;;;;5055068;28;20071;-76
2021/08/06 05:34:21;;;;;;;3.03;2.13;;;18.70;99.90;;;;;;5055528;28;20181;-76
2021/08/06 05:36:47;;;;;;;2.17;1.80;;;18.80;99.90;;;;;;5051399;28;20500;-77
2021/08/06 05:39:12;;;;;;;7.70;2.20;;;18.80;99.90;;;;;;5054913;28;20021;-76
2021/08/06 05:41:38;;;;;;;2.42;1.85;;;18.80;99.90;;;;;;5047854;28;20021;-76
2021/08/06 05:44:04;;;;;;;2.67;1.85;;;18.80;99.90;;;;;;5050754;28;20039;-75
2021/08/06 05:46:30;;;;;;;2.45;2.00;;;18.80;99.90;;;;;;5050034;28;20164;-76
2021/08/06 05:48:55;;;;;;;2.08;1.88;;;18.80;99.90;;;;;;5051717;28;20449;-76
2021/08/06 05:51:21;;;;;;;2.05;1.92;;;18.80;99.90;;;;;;5050973;28;20078;-76
2021/08/06 05:53:46;;;;;;;4.30;2.30;;;18.80;99.90;;;;;;5046907;28;20021;-76
2021/08/06 05:56:12;;;;;;;2.25;2.05;;;18.80;99.90;;;;;;5048689;28;20044;-75
2021/08/06 05:58:38;;;;;;;2.78;2.10;;;18.80;99.90;;;;;;5050921;28;20023;-76
2021/08/06 06:01:03;;;;;;;3.03;2.53;;;18.70;99.90;;;;;;5049677;28;20029;-76
2021/08/06 06:03:29;;;;;;;2.22;2.03;;;18.80;99.90;;;;;;5054775;28;20350;-76
2021/08/06 06:05:55;;;;;;;3.10;2.30;;;18.70;99.90;;;;;;5053475;28;20079;-75
2021/08/06 06:08:20;;;;;;;3.60;2.33;;;18.80;99.90;;;;;;5051830;28;20035;-77
2021/08/06 06:10:46;;;;;;;2.85;2.10;;;18.80;99.90;;;;;;5053190;28;20116;-76
2021/08/06 06:13:12;;;;;;;7.75;2.20;;;18.80;99.90;;;;;;5048965;28;20028;-76
2021/08/06 06:15:38;;;;;;;6.00;2.28;;;18.90;99.90;;;;;;5050501;28;20119;-76
2021/08/06 06:18:03;;;;;;;2.25;2.05;;;18.90;99.90;;;;;;5053787;28;20469;-76
2021/08/06 06:20:29;;;;;;;2.58;2.13;;;18.90;99.90;;;;;;5053655;28;20074;-75
2021/08/06 06:22:55;;;;;;;2.30;2.00;;;18.90;99.90;;;;;;5054033;28;20036;-75
2021/08/06 06:25:21;;;;;;;4.13;2.83;;;18.80;99.90;;;;;;5052468;28;20037;-75
2021/08/06 06:28:00;;;;;;;2.38;2.20;;;18.80;99.90;;;;;;5052010;28;20029;-76
2021/08/06 06:30:27;;;;;;;3.83;2.70;;;18.80;99.90;;;;;;5049633;28;20488;-75
2021/08/06 06:32:54;;;;;;;;;;;18.90;99.90;;;;;;5052986;28;20024;-75
2021/08/06 06:35:20;;;;;;;2.22;1.60;;;18.90;99.90;;;;;;5052475;28;19912;-75
2021/08/06 06:37:46;;;;;;;4.03;2.67;;;18.90;99.90;;;;;;5051899;28;20037;-76
2021/08/06 06:40:13;;;;;;;4.47;2.97;;;19.00;99.90;;;;;;5053911;28;20354;-75
2021/08/06 06:42:38;;;;;;;3.83;2.63;;;19.00;99.90;;;;;;5051373;28;20067;-75
2021/08/06 06:45:04;;;;;;;3.13;2.83;;;19.00;99.90;;;;;;5052882;28;20508;-76
2021/08/06 06:47:45;;;;;;;4.78;3.05;;;19.00;99.90;;;;;;5054528;28;20033;-75
2021/08/06 06:50:13;;;;;;;3.65;3.28;;;19.00;99.90;;;;;;5068070;28;20025;-75
2021/08/06 06:52:40;;;;;;;3.50;3.13;;;19.00;99.90;;;;;;5055574;28;20033;-75
2021/08/06 06:55:08;;;;;;;4.82;3.35;;;19.00;99.90;;;;;;5053378;28;20044;-74
2021/08/06 06:57:43;;;;;;;3.40;3.10;;;19.00;99.90;;;;;;5053288;28;20049;-75
2021/08/06 07:00:11;;;;;;;4.47;3.30;;;19.00;99.90;;;;;;5052442;28;20418;-75
2021/08/06 07:02:36;;;;;;;6.15;3.53;;;19.00;99.90;;;;;;5068409;28;20017;-74
2021/08/06 07:05:02;;;;;;;5.32;3.47;;;19.00;99.90;;;;;;5051536;28;20470;-75
2021/08/06 07:07:28;;;;;;;4.30;3.10;;;19.10;99.90;;;;;;5053710;28;20098;-75
2021/08/06 07:09:54;;;;;;;4.38;3.03;;;19.20;99.90;;;;;;5052231;28;20017;-75
2021/08/06 07:12:19;;;;;;;5.13;3.45;;;19.30;99.90;;;;;;5051350;28;20029;-76
2021/08/06 07:14:45;;;;;;;4.28;3.25;;;19.50;99.90;;;;;;5053391;28;20063;-75
2021/08/06 07:17:10;;;;;;;3.33;2.70;;;19.90;99.90;;;;;;5052682;28;20036;-74
2021/08/06 07:19:36;;;;;;;3.45;2.67;;;19.90;99.90;;;;;;5052659;28;20025;-75
2021/08/06 07:22:02;;;;;;;9.48;3.08;;;19.70;99.90;;;;;;5048231;28;20025;-75
2021/08/06 07:24:27;;;;;;;3.92;2.95;;;19.60;99.90;;;;;;5049393;28;20033;-75
2021/08/06 07:26:53;;;;;;;7.95;3.40;;;19.40;99.90;;;;;;5047944;28;20036;-75
2021/08/06 07:29:18;;;;;;;5.15;3.28;;;19.40;99.90;;;;;;5050573;28;20040;-75
2021/08/06 07:31:44;;;;;;;3.25;2.90;;;19.50;99.90;;;;;;5052776;28;20104;-75
2021/08/06 07:34:10;;;;;;;7.18;3.28;;;19.50;99.90;;;;;;5051151;28;20028;-75
2021/08/06 07:36:35;;;;;;;3.15;2.80;;;19.50;99.90;;;;;;5050519;28;20096;-75
2021/08/06 07:39:02;;;;;;;7.25;3.17;;;19.50;99.90;;;;;;5048692;28;20048;-75
2021/08/06 07:41:27;;;;;;;7.53;3.33;;;19.40;99.90;;;;;;5052145;28;20052;-74
2021/08/06 07:43:53;;;;;;;5.63;2.40;;;19.60;99.90;;;;;;5049875;28;20061;-75
2021/08/06 07:46:18;;;;;;;5.10;2.80;;;19.90;99.90;;;;;;5053845;28;20025;-74
2021/08/06 07:48:44;;;;;;;5.78;2.45;;;20.20;99.90;;;;;;5051653;28;20017;-75
2021/08/06 07:51:10;;;;;;;5.70;2.17;;;20.30;99.90;;;;;;5053507;28;20099;-75
2021/08/06 07:53:35;;;;;;;4.57;2.78;;;20.50;99.90;;;;;;5053488;28;20396;-75
2021/08/06 07:56:01;;;;;;;10.27;2.60;;;20.50;99.90;;;;;;5049746;28;20049;-74
2021/08/06 07:58:26;;;;;;;5.57;2.20;;;20.60;99.90;;;;;;5052397;28;20106;-76
2021/08/06 08:00:52;;;;;;;4.32;1.85;;;20.60;99.90;;;;;;5055011;28;20017;-76
2021/08/06 08:03:20;;;;;;;2.97;2.00;;;20.40;99.90;;;;;;5052823;28;20025;-78
2021/08/06 08:05:46;;;;;;;4.30;1.95;;;20.30;99.90;;;;;;5054611;28;20025;-74
2021/08/06 08:08:11;;;;;;;3.38;2.50;;;20.10;99.90;;;;;;5049159;28;20044;-73
2021/08/06 08:10:37;;;;;;;6.65;3.25;;;20.00;99.90;;;;;;5053377;28;20025;-75
2021/08/06 08:13:03;;;;;;;5.68;2.50;;;20.20;99.90;;;;;;5051946;28;20062;-78
2021/08/06 08:15:28;;;;;;;2.35;2.15;;;20.40;99.90;;;;;;5053545;28;20056;-73
2021/08/06 08:17:54;;;;;;;3.03;2.00;;;20.60;99.90;;;;;;5046971;28;20512;-73
2021/08/06 08:20:20;;;;;;;6.90;2.88;;;20.50;99.90;;;;;;5053375;28;20021;-73
2021/08/06 08:22:46;;;;;;;8.00;2.95;;;20.50;99.90;;;;;;5051360;28;20050;-73
2021/08/06 08:25:12;;;;;;;6.88;2.25;;;20.70;99.90;;;;;;5052423;28;20031;-74
2021/08/06 08:27:39;;;;;;;3.75;1.85;;;21.10;99.90;;;;;;5052935;28;20079;-74
2021/08/06 08:30:07;;;;;;;2.88;1.77;;;21.40;99.90;;;;;;5053200;28;20036;-73
2021/08/06 08:32:34;;;;;;;4.13;1.50;;;21.70;99.90;;;;;;5053823;28;20385;-73
2021/08/06 08:34:59;;;;;;;1.92;1.52;;;21.60;99.90;;;;;;5053565;28;20025;-74
2021/08/06 08:37:25;;;;;;;6.35;2.33;;;21.40;99.90;;;;;;5051292;28;20044;-73
2021/08/06 08:39:50;;;;;;;5.70;1.95;;;21.30;99.90;;;;;;5053616;28;20132;-74
2021/08/06 08:42:18;;;;;;;6.38;1.83;;;21.20;99.90;;;;;;5054200;28;20385;-74
2021/08/06 08:44:44;;;;;;;;;;;21.10;99.90;;;;;;5053154;28;20017;-74
2021/08/06 08:47:10;;;;;;;3.38;2.58;;;21.20;99.90;;;;;;5052168;28;20353;-74
2021/08/06 08:49:37;;;;;;;4.07;1.80;;;21.30;99.90;;;;;;5052193;28;20028;-74
2021/08/06 08:52:03;;;;;;;4.97;1.83;;;21.10;99.90;;;;;;5054227;28;20037;-74
2021/08/06 08:54:29;;;;;;;5.20;1.70;;;21.00;99.90;;;;;;5055199;28;20037;-75
2021/08/06 08:56:55;;;;;;;2.72;1.67;;;21.00;99.90;;;;;;5053613;28;20401;-74
2021/08/06 08:59:21;;;;;;;9.95;1.70;;;21.30;99.90;;;;;;5058485;28;20078;-75
2021/08/06 09:01:46;;;;;;;2.75;1.48;;;21.80;99.90;;;;;;5063581;28;20435;-74
2021/08/06 09:04:25;;;;;;;5.00;1.30;;;21.90;99.90;;;;;;5071072;28;20025;-74
2021/08/06 09:06:51;;;;;;;4.60;1.40;;;21.80;99.90;;;;;;5062117;28;20056;-74
2021/08/06 09:09:22;;;;;;;3.88;1.30;;;21.40;99.90;;;;;;5054163;28;20181;-73
2021/08/06 09:11:49;;;;;;;3.50;1.88;;;21.20;99.90;;;;;;5053414;28;20031;-74
2021/08/06 09:14:24;;;;;;;4.63;1.67;;;21.00;99.90;;;;;;5057924;28;20102;-74
2021/08/06 09:17:13;;;;;;;3.22;1.73;;;21.00;99.90;;;;;;5048232;28;20024;-73
2021/08/06 09:19:41;;;;;;;4.47;1.50;;;20.90;99.90;;;;;;5045228;28;20457;-73
2021/08/06 09:22:24;;;;;;;3.72;1.20;;;20.70;99.90;;;;;;5049085;28;20033;-73
2021/08/06 09:25:15;;;;;;;2.40;1.38;;;20.60;99.90;;;;;;5046971;28;20044;-74
2021/08/06 09:27:48;;;;;;;2.13;1.60;;;20.60;99.90;;;;;;5033457;28;20025;-74
2021/08/06 09:30:24;;;;;;;5.57;1.50;;;20.70;99.90;;;;;;5050856;28;20548;-73
2021/08/06 09:32:54;;;;;;;5.80;1.67;;;20.60;99.90;;;;;;5033655;28;20028;-74
2021/08/06 09:35:26;;;;;;;5.68;2.83;;;20.60;99.90;;;;;;5044819;28;20032;-74
2021/08/06 09:37:52;;;;;;;7.18;2.25;;;20.40;99.90;;;;;;5067803;28;20154;-74
2021/08/06 09:40:25;;;;;;;5.60;2.38;;;20.20;99.90;;;;;;5043505;28;20074;-73
2021/08/06 09:43:01;;;;;;;3.97;2.20;;;20.10;99.90;;;;;;5055080;28;20470;-74
2021/08/06 09:45:34;;;;;;;5.40;2.08;;;20.30;99.90;;;;;;5049737;28;20028;-74
2021/08/06 09:48:01;;;;;;;4.50;1.50;;;20.80;99.90;;;;;;5051366;28;20031;-74
2021/08/06 09:50:39;;;;;;;2.80;1.65;;;21.60;99.90;;;;;;5053048;28;20076;-74
2021/08/06 09:53:06;;;;;;;7.10;1.60;;;22.20;99.90;;;;;;5052928;28;20110;-73
2021/08/06 09:55:34;;;;;;;2.10;1.35;;;22.20;99.90;;;;;;5054077;28;20032;-74
2021/08/06 09:58:06;;;;;;;6.25;1.33;;;22.20;99.90;;;;;;5054882;28;20039;-74
2021/08/06 10:00:33;;;;;;;8.52;1.63;;;22.10;99.90;;;;;;5044394;28;20522;-73
2021/08/06 10:02:59;;;;;;;6.75;1.25;;;21.80;99.90;;;;;;5036881;28;20393;-74
2021/08/06 10:05:27;;;;;;;2.35;1.10;;;21.40;99.90;;;;;;5046469;28;20021;-74
2021/08/06 10:07:56;;;;;;;5.90;1.35;;;21.20;99.90;;;;;;5040513;28;20271;-73
2021/08/06 10:10:27;;;;;;;3.20;2.00;;;21.00;99.90;;;;;;5057572;28;20480;-73
2021/08/06 10:12:53;;;;;;;3.33;1.52;;;21.00;99.90;;;;;;5064567;28;20095;-74
2021/08/06 10:15:20;;;;;;;3.90;1.58;;;21.10;99.90;;;;;;5045731;28;20021;-76
2021/08/06 10:17:48;;;;;;;6.60;1.88;;;21.20;99.90;;;;;;5061289;28;20030;-75
2021/08/06 10:20:16;;;;;;;2.50;1.77;;;21.20;99.90;;;;;;5059931;28;20028;-76
2021/08/06 10:22:42;;;;;;;3.45;3.08;;;21.20;99.90;;;;;;5068722;28;20039;-76
2021/08/06 10:25:11;;;;;;;2.35;1.55;;;21.10;99.90;;;;;;5068958;28;20021;-75
2021/08/06 10:27:44;;;;;;;3.53;1.75;;;21.10;99.90;;;;;;5061739;28;20061;-75
2021/08/06 10:30:24;;;;;;;3.38;2.00;;;21.20;99.90;;;;;;5058037;28;20071;-74
2021/08/06 10:33:09;;;;;;;3.97;1.58;;;21.30;99.90;;;;;;5058333;28;20367;-75
2021/08/06 10:35:47;;;;;;;2.78;1.58;;;21.50;99.90;;;;;;5056863;28;20033;-75
2021/08/06 10:38:15;;;;;;;2.30;1.95;;;21.60;99.90;;;;;;5057736;28;20032;-76
2021/08/06 10:40:41;;;;;;;3.85;1.77;;;21.70;99.90;;;;;;5060783;28;20021;-75
2021/08/06 10:43:09;;;;;;;9.25;1.50;;;21.90;99.90;;;;;;5063790;28;20028;-75
2021/08/06 10:45:47;;;;;;;3.08;1.45;;;22.30;99.90;;;;;;5079679;28;20089;-76
2021/08/06 10:48:31;;;;;;;1.80;1.50;;;22.40;99.90;;;;;;5079454;28;20465;-75
2021/08/06 10:51:18;;;;;;;3.60;2.17;;;22.40;99.90;;;;;;5077399;28;20069;-75
2021/08/06 10:53:44;;;;;;;;;;;22.50;99.90;;;;;;5077798;28;20028;-76
2021/08/06 10:56:18;;;;;;;3.78;1.30;;;22.50;99.90;;;;;;5076897;28;20368;-75
2021/08/06 10:58:47;;;;;;;4.50;1.20;;;22.60;99.90;;;;;;5077407;28;20037;-75
2021/08/06 11:01:32;;;;;;;1.30;1.20;;;22.60;99.90;;;;;;5078655;28;20023;-75
2021/08/06 11:04:05;;;;;;;2.63;1.25;;;22.60;99.90;;;;;;5078557;28;20025;-75
2021/08/06 11:06:46;;;;;;;2.78;1.45;;;22.50;99.90;;;;;;5079600;28;20020;-76
2021/08/06 11:09:31;;;;;;;1.50;1.40;;;22.60;99.90;;;;;;5078832;28;20036;-75
2021/08/06 11:12:02;;;;;;;3.47;1.40;;;22.70;99.90;;;;;;5073909;28;20548;-75
2021/08/06 11:14:28;;;;;;;2.13;1.23;;;22.80;99.90;;;;;;5077735;28;20384;-74
2021/08/06 11:17:02;;;;;;;5.32;1.40;;;22.80;99.90;;;;;;5077453;28;20032;-75
2021/08/06 11:19:31;;;;;;;2.97;1.55;;;22.50;99.90;;;;;;5077252;28;20032;-75
2021/08/06 11:21:58;;;;;;;2.05;1.35;;;22.10;99.90;;;;;;5075531;28;20028;-76
2021/08/06 11:24:24;;;;;;;2.35;1.48;;;21.80;99.90;;;;;;5074971;28;20085;-74
2021/08/06 11:26:50;;;;;;;6.28;2.10;;;21.50;99.90;;;;;;5076504;28;20512;-74
2021/08/06 11:29:17;;;;;;;5.28;1.33;;;20.80;99.90;;;;;;5076064;28;20491;-75
2021/08/06 11:31:42;;;;;;;5.22;1.67;;;19.70;99.90;;;;;;5075503;28;20024;-74
2021/08/06 11:34:08;;;;;;;3.05;1.35;;;19.00;99.90;;;;;;5075263;28;20032;-73
2021/08/06 11:36:36;;;;;;;1.73;1.35;;;18.50;99.90;;;;;;5073957;28;20024;-74
2021/08/06 11:39:15;;;;;;;4.28;1.60;;;18.30;99.90;;;;;;5074237;28;20055;-74
2021/08/06 11:41:51;;;;;;;3.58;1.52;;;18.10;99.90;;;;;;5073240;28;20017;-74
2021/08/06 11:44:18;;;;;;;4.20;1.10;;;18.10;99.90;;;;;;5058266;28;20119;-74
2021/08/06 11:46:45;;;;;;;7.60;2.00;;;18.10;99.90;;;;;;5055224;28;20018;-74
2021/08/06 11:49:11;;;;;;;2.85;2.10;;;18.30;99.90;;;;;;5053785;28;20029;-74
2021/08/06 11:51:59;;;;;;;1.85;1.75;;;18.40;99.90;;;;;;5053795;28;20083;-74
2021/08/06 11:54:25;;;;;;;5.22;2.53;;;18.60;99.90;;;;;;5054778;28;20033;-74
2021/08/06 11:56:58;;;;;;;6.38;2.35;;;18.80;99.90;;;;;;5054130;28;20136;-74
2021/08/06 11:59:24;;;;;;;2.25;2.05;;;18.90;99.90;;;;;;5053442;28;20029;-74
2021/08/06 12:01:51;;;;;;;4.57;2.35;;;19.00;99.90;;;;;;5053435;28;20021;-74
2021/08/06 12:04:27;;;;;;;4.47;2.85;;;19.20;99.90;;;;;;5073629;28;20029;-75
2021/08/06 12:06:52;;;;;;;3.47;2.22;;;19.30;99.90;;;;;;5073519;28;20044;-74
2021/08/06 12:09:18;;;;;;;6.32;2.50;;;19.50;99.90;;;;;;5074973;28;20052;-74
2021/08/06 12:11:45;;;;;;;2.33;2.13;;;19.60;99.90;;;;;;5074662;28;20116;-74
2021/08/06 12:14:11;;;;;;;2.03;1.93;;;19.70;99.90;;;;;;5073194;28;20473;-75
2021/08/06 12:16:41;;;;;;;4.10;1.70;;;19.80;99.90;;;;;;5073622;28;20017;-74
2021/08/06 12:19:08;;;;;;;2.25;2.15;;;19.80;99.90;;;;;;5073372;28;20396;-74
2021/08/06 12:21:37;;;;;;;3.13;2.30;;;19.80;99.90;;;;;;5074384;28;20047;-75
2021/08/06 12:24:07;;;;;;;2.47;1.67;;;19.70;99.90;;;;;;5073923;28;20357;-75
2021/08/06 12:26:33;;;;;;;2.72;1.98;;;19.70;99.90;;;;;;5073958;28;20052;-74
2021/08/06 12:29:15;;;;;;;2.42;2.22;;;19.50;99.90;;;;;;5074453;28;20353;-75
2021/08/06 12:31:54;;;;;;;2.00;1.38;;;19.40;99.90;;;;;;5074206;28;20048;-74
2021/08/06 12:34:25;;;;;;;2.53;1.30;;;19.20;99.90;;;;;;5072760;28;20028;-75
2021/08/06 12:36:54;;;;;;;2.47;1.25;;;19.00;99.90;;;;;;5072897;28;20029;-75
2021/08/06 12:39:20;;;;;;;1.83;1.42;;;18.70;99.90;;;;;;5074294;28;20021;-75
2021/08/06 12:41:47;;;;;;;2.00;1.50;;;18.40;99.90;;;;;;5073200;28;20502;-75
2021/08/06 12:44:14;;;;;;;;;;;18.20;99.90;;;;;;5058192;28;20469;-76
2021/08/06 12:46:39;;;;;;;3.70;2.00;;;18.10;99.90;;;;;;5054345;28;19905;-74
2021/08/06 12:49:10;;;;;;;2.97;2.40;;;18.10;99.90;;;;;;5053781;28;20083;-75
2021/08/06 12:51:39;;;;;;;2.20;2.00;;;18.20;99.90;;;;;;5051846;28;20078;-75
2021/08/06 12:54:25;;;;;;;3.92;1.80;;;18.50;99.90;;;;;;5053583;28;20036;-74
2021/08/06 12:56:54;;;;;;;2.03;1.88;;;18.70;99.90;;;;;;5050328;28;20053;-75